KELA

Details ICAO KELA
Name EAGLE LAKE
Region United States
Timezone America/Chicago (UTC-5.0)
Plans Departing 1
Arriving 3
Stats Elevation 184 ft / 56 m (AMSL)
Location 29.600673° -96.322057°
Runways 1
Magnetic Variation 2.999° E
Sunrise 2018-05-27 11:28:26 UTC / 2018-05-27 06:28:26 Local
Sunset 2018-05-28 01:19:24 UTC / 2018-05-27 20:19:24 Local
Advertisement - Login to hide

Runways

ID Width Length Bearing (true) Bearing (mag) Surface Threshold Offset Overrun Length
17 60 ft / 18 m 3,814 ft / 1,162 m 171.32° 168.32° Asphalt 0 ft / 0 m 0 ft / 0 m
35 60 ft / 18 m 3,814 ft / 1,162 m 351.32° 348.32° Asphalt 0 ft / 0 m 0 ft / 0 m

Map

Weather


0- 5 10 15 20 25 30 35+ Temperature / ° C

Clouds and Precipitation
Forecast for 2018-05-27 12:00 UTC. Updated 3 hours ago

Ground ~20,000 ft ~40,000 ft Winds

METAR

KELA 271435Z AUTO 00000KT 10SM BKN008 OVC014 26/24 A2985 RMK AO2 T02630243

TAF

Not found

Frequencies

Unicom 122.90 MHz CTAF
Warning: Do not use this data for real-world aviation or navigation. No guarantee of current accuracy is given.